Pitsburg, Ohio
Current Conditions -  °F | °C
As of 6:56 AM on Wednesday 28 Jan 2015 (Local Time) from KDAY Reporting Station
Haze Haze  
Wind Chill:   Ceiling: Unl
Heat Index:   Visibility: 3mi
Dew Point:   Wind: 0mph
Humidity: 84%   Direction: NA
Pressure: 30.32"   Gusts: NA
Location:  39.99°N, 84.49°W
Report Text: KDAY 281156Z 00000KT 3SM BR CLR M13/M15 A3032 RMK AO2 SLP289 4/003 I6000 T11281150 11111 21133 51018
Loading
Personal Weather Stations






























Interactive Weather Map New forecast layout! Learn more

10-Day Weather Forecast

Advertisements
Track Severe Weather on mobile